Terminal Aerodrome Forecast
Issued by NWS

Home | Current Version | Previous Version | Text Only | Print | Product List | Glossary On
Versions: 1 2 3 4 5 6 7 8 9 10 11 12 13 14 15 16 17 18 19
000
FTUS43 KDLH 211123
TAFHIB
TAF
KHIB 211123Z 2112/2212 VRB02KT 6SM BR SCT001
      TEMPO 2112/2113 1SM BR SCT002
     FM211400 35004KT P6SM FEW002
     FM211500 36008KT P6SM FEW050
     FM220000 VRB03KT P6SM SKC=

USA.gov is the U.S. government's official web portal to all federal, state and local government web resources and services.